Thunder radar more information blitzortung!


Radar de pluja more information rain snow radar


Visita la nostra xarxa de llocs de meteo:

Template documentation
and downloads

And another site



No particular awareness of the weather is required.    There are no Weather-warnings

Pagina Historial Weather Underground text

Diari Resum Setembre 30, 2017 Unitats:  Mètric    Imperial   Tant
« Previous Dia
SegĂźent Dia »
Diari Setmana Mensual Anual Personalitzada
  Maxima: Minima: Media:
Temperatura: 24.7 °C 13.5 °C 19.4 °C
Punt de rosada: 16.9 °C 11.4 °C 14.5 °C
Humitat: 89 % 53 % 74 %
Wind Speed: 14.8 km/h 0.0 km/h 3.8 km/h
RĂ fegues de vent: 14.8 km/h - -
Vent:- - South
Pression baro: 1022.9 hPa 1018.8 hPa -
Precipitacions: 0.0 mm    
Historical Graphs
 
 
Dades de taula per Setembre 30, 2017
Temps Temperatura Punt de rosada Pression baro Vent Wind Speed RĂ fegues de vent Humitat Rainfall Rate (Hourly)
00:00 15.3 °C 12.9 °C 1021.9 hPa SW 1.6 km/h 4.8 km/h 86 % 0.0 mm
00:02 18.2 °C 14.3 °C 1022.9 hPa West 3.7 km/h 3.7 km/h 78 % 0.0 mm
00:07 18.2 °C 14.5 °C 1022.9 hPa WSW 3.7 km/h 3.7 km/h 79 % 0.0 mm
00:10 15.3 °C 12.9 °C 1021.9 hPa Calm     86 % 0.0 mm
00:12 18.1 °C 14.4 °C 1022.9 hPa SW 1.9 km/h   79 % 0.0 mm
00:20 15.3 °C 13.2 °C 1021.9 hPa Calm   1.6 km/h 87 % 0.0 mm
00:30 15.0 °C 12.8 °C 1021.9 hPa Calm   1.6 km/h 87 % 0.0 mm
00:40 14.9 °C 12.8 °C 1020.9 hPa Calm   1.6 km/h 87 % 0.0 mm
00:50 14.8 °C 12.7 °C 1020.9 hPa Calm     87 % 0.0 mm
01:00 14.7 °C 12.6 °C 1021.9 hPa Calm     87 % 0.0 mm
01:10 14.4 °C 12.1 °C 1021.9 hPa North 1.6 km/h 3.2 km/h 86 % 0.0 mm
01:20 14.4 °C 12.3 °C 1021.9 hPa Calm   1.6 km/h 87 % 0.0 mm
01:30 14.5 °C 12.3 °C 1020.9 hPa Calm   1.6 km/h 87 % 0.0 mm
01:40 14.6 °C 12.6 °C 1021.9 hPa Calm     88 % 0.0 mm
01:50 14.2 °C 12.1 °C 1021.9 hPa SW 1.6 km/h 3.2 km/h 87 % 0.0 mm
02:00 13.9 °C 11.8 °C 1021.9 hPa Calm   1.6 km/h 87 % 0.0 mm
02:20 13.7 °C 11.4 °C 1021.9 hPa SW 3.2 km/h 3.2 km/h 86 % 0.0 mm
02:30 13.6 °C 11.5 °C 1021.9 hPa Calm   4.8 km/h 87 % 0.0 mm
02:40 13.6 °C 11.5 °C 1021.9 hPa WSW 1.6 km/h 1.6 km/h 87 % 0.0 mm
02:50 13.5 °C 11.4 °C 1021.9 hPa SW 3.2 km/h 3.2 km/h 87 % 0.0 mm
03:00 13.7 °C 11.7 °C 1021.9 hPa Calm   3.2 km/h 88 % 0.0 mm
03:10 13.6 °C 11.7 °C 1021.9 hPa WSW 1.6 km/h   88 % 0.0 mm
03:20 13.6 °C 11.7 °C 1021.9 hPa WSW 1.6 km/h 1.6 km/h 88 % 0.0 mm
03:30 13.9 °C 12.1 °C 1021.9 hPa Calm     89 % 0.0 mm
03:40 14.0 °C 12.1 °C 1021.9 hPa SW 1.6 km/h 3.2 km/h 88 % 0.0 mm
03:50 14.1 °C 12.2 °C 1021.9 hPa SW 3.2 km/h 3.2 km/h 88 % 0.0 mm
04:00 14.2 °C 12.2 °C 1021.9 hPa SW 1.6 km/h 3.2 km/h 88 % 0.0 mm
04:10 14.6 °C 12.6 °C 1021.9 hPa SW 1.6 km/h 3.2 km/h 88 % 0.0 mm
04:20 15.3 °C 13.5 °C 1021.9 hPa Calm     89 % 0.0 mm
04:30 15.5 °C 13.5 °C 1021.9 hPa Calm   1.6 km/h 88 % 0.0 mm
04:40 16.2 °C 14.1 °C 1021.9 hPa SW 3.2 km/h 3.2 km/h 87 % 0.0 mm
04:50 16.6 °C 14.4 °C 1021.9 hPa SW 1.6 km/h 3.2 km/h 87 % 0.0 mm
05:00 17.0 °C 14.4 °C 1021.9 hPa SSW 1.6 km/h 4.8 km/h 85 % 0.0 mm
05:10 17.2 °C 14.4 °C 1021.9 hPa SSW 1.6 km/h 3.2 km/h 84 % 0.0 mm
05:20 17.5 °C 14.8 °C 1021.9 hPa Calm   1.6 km/h 84 % 0.0 mm
05:30 18.3 °C 15.2 °C 1021.9 hPa West 1.6 km/h 3.2 km/h 82 % 0.0 mm
05:40 18.9 °C 15.6 °C 1021.9 hPa Calm   3.2 km/h 81 % 0.0 mm
05:50 18.9 °C 15.4 °C 1021.9 hPa Calm   4.8 km/h 80 % 0.0 mm
06:00 19.0 °C 15.1 °C 1021.9 hPa NE 1.6 km/h 4.8 km/h 78 % 0.0 mm
06:10 19.8 °C 15.8 °C 1021.9 hPa Calm   3.2 km/h 78 % 0.0 mm
11:10 20.1 °C 15.9 °C 1021.9 hPa SW 2.3 km/h 3.5 km/h 77 % 0.0 mm
11:15 20.3 °C 15.9 °C 1021.9 hPa SW 3.7 km/h 3.7 km/h 76 % 0.0 mm
11:20 20.5 °C 16.1 °C 1021.9 hPa SW 7.6 km/h 7.6 km/h 76 % 0.0 mm
11:25 20.6 °C 16.2 °C 1021.9 hPa South 5.8 km/h 5.8 km/h 76 % 0.0 mm
11:30 20.9 °C 16.5 °C 1020.9 hPa SSW 5.6 km/h 5.6 km/h 76 % 0.0 mm
11:35 21.1 °C 16.5 °C 1020.9 hPa WSW 3.7 km/h 3.9 km/h 75 % 0.0 mm
11:40 21.0 °C 16.2 °C 1020.9 hPa West 13.0 km/h 13.0 km/h 74 % 0.0 mm
11:45 21.1 °C 16.3 °C 1020.9 hPa West 9.7 km/h 9.7 km/h 74 % 0.0 mm
11:50 21.2 °C 16.4 °C 1020.9 hPa SSW 5.6 km/h 5.6 km/h 74 % 0.0 mm
11:55 21.7 °C 16.7 °C 1020.9 hPa West 7.4 km/h 7.4 km/h 73 % 0.0 mm
12:00 21.7 °C 16.7 °C 1020.9 hPa West 11.4 km/h 11.4 km/h 73 % 0.0 mm
12:05 21.7 °C 16.4 °C 1020.9 hPa SW 7.4 km/h 7.4 km/h 72 % 0.0 mm
12:10 21.7 °C 16.2 °C 1020.9 hPa SSW 7.4 km/h 7.4 km/h 71 % 0.0 mm
12:15 21.9 °C 16.4 °C 1020.9 hPa SW 5.6 km/h 5.6 km/h 71 % 0.0 mm
12:20 22.4 °C 16.7 °C 1020.9 hPa SSE 7.4 km/h 7.4 km/h 70 % 0.0 mm
12:25 22.8 °C 16.8 °C 1020.9 hPa WSW 11.1 km/h 11.1 km/h 69 % 0.0 mm
12:30 23.0 °C 16.8 °C 1020.9 hPa WSW 7.4 km/h 7.4 km/h 68 % 0.0 mm
12:35 23.0 °C 16.8 °C 1020.9 hPa WSW 7.4 km/h 7.4 km/h 68 % 0.0 mm
12:40 23.2 °C 16.9 °C 1020.9 hPa West 5.6 km/h 5.6 km/h 68 % 0.0 mm
12:45 23.3 °C 16.6 °C 1019.9 hPa SSW 5.8 km/h 5.8 km/h 66 % 0.0 mm
12:50 23.2 °C 16.3 °C 1019.9 hPa SW 9.3 km/h 9.3 km/h 65 % 0.0 mm
13:00 23.7 °C 16.5 °C 1019.9 hPa WSW 4.2 km/h 4.2 km/h 64 % 0.0 mm
13:05 24.0 °C 16.5 °C 1019.9 hPa SW 10.0 km/h 10.0 km/h 63 % 0.0 mm
13:10 24.2 °C 16.4 °C 1019.9 hPa WSW 6.1 km/h 6.4 km/h 62 % 0.0 mm
13:15 24.3 °C 16.1 °C 1019.9 hPa SW 8.7 km/h 8.7 km/h 60 % 0.0 mm
13:20 24.4 °C 16.4 °C 1019.9 hPa SSW 9.3 km/h 9.3 km/h 61 % 0.0 mm
13:25 24.7 °C 16.4 °C 1019.9 hPa WSW 7.9 km/h 7.9 km/h 60 % 0.0 mm
13:30 24.5 °C 15.9 °C 1018.8 hPa SW 6.1 km/h 6.1 km/h 59 % 0.0 mm
13:35 24.6 °C 16.1 °C 1018.8 hPa WSW 7.6 km/h 7.6 km/h 59 % 0.0 mm
13:40 24.6 °C 15.8 °C 1018.8 hPa SSW 7.4 km/h 7.4 km/h 58 % 0.0 mm
13:45 24.7 °C 16.2 °C 1019.9 hPa SSW 10.0 km/h 10.0 km/h 59 % 0.0 mm
13:50 24.6 °C 15.5 °C 1019.9 hPa SW 11.1 km/h 11.1 km/h 57 % 0.0 mm
13:55 24.5 °C 15.7 °C 1019.9 hPa WSW 14.8 km/h 14.8 km/h 58 % 0.0 mm
14:00 24.5 °C 15.7 °C 1018.8 hPa WSW 9.5 km/h 9.5 km/h 58 % 0.0 mm
14:05 24.4 °C 15.1 °C 1018.8 hPa SW 11.1 km/h 11.1 km/h 56 % 0.0 mm
14:10 24.4 °C 15.1 °C 1018.8 hPa WSW 7.4 km/h 7.4 km/h 56 % 0.0 mm
14:15 24.4 °C 15.1 °C 1018.8 hPa SW 7.4 km/h 7.4 km/h 56 % 0.0 mm
14:20 24.5 °C 15.4 °C 1018.8 hPa WSW 7.4 km/h 7.4 km/h 57 % 0.0 mm
14:25 24.6 °C 15.5 °C 1018.8 hPa SW 7.4 km/h 7.4 km/h 57 % 0.0 mm
14:30 24.6 °C 15.2 °C 1018.8 hPa South 11.1 km/h 11.1 km/h 56 % 0.0 mm
14:35 24.7 °C 15.3 °C 1018.8 hPa SSW 11.1 km/h 11.1 km/h 56 % 0.0 mm
14:41 24.7 °C 15.3 °C 1018.8 hPa WSW 11.1 km/h 11.1 km/h 56 % 0.0 mm
14:46 24.7 °C 15.3 °C 1019.9 hPa SW 3.7 km/h 3.7 km/h 56 % 0.0 mm
14:51 24.6 °C 15.2 °C 1019.9 hPa South 5.6 km/h 5.6 km/h 56 % 0.0 mm
14:56 24.6 °C 15.5 °C 1019.9 hPa SSW 7.4 km/h 7.4 km/h 57 % 0.0 mm
15:01 24.5 °C 15.4 °C 1019.9 hPa SSW 5.6 km/h 5.6 km/h 57 % 0.0 mm
15:06 24.3 °C 15.2 °C 1019.9 hPa SW 7.4 km/h 7.4 km/h 57 % 0.0 mm
15:11 24.3 °C 15.2 °C 1019.9 hPa WSW 6.4 km/h 6.4 km/h 57 % 0.0 mm
15:16 24.2 °C 15.4 °C 1019.9 hPa SW 7.6 km/h 7.6 km/h 58 % 0.0 mm
15:21 24.1 °C 15.3 °C 1019.9 hPa SW 5.6 km/h 5.6 km/h 58 % 0.0 mm
15:26 23.9 °C 15.7 °C 1019.9 hPa SW 9.3 km/h 9.3 km/h 60 % 0.0 mm
15:31 23.8 °C 15.6 °C 1019.9 hPa SSW 5.6 km/h 5.6 km/h 60 % 0.0 mm
15:36 23.8 °C 15.6 °C 1019.9 hPa SW 7.4 km/h 7.4 km/h 60 % 0.0 mm
15:41 23.9 °C 15.7 °C 1019.9 hPa SW 5.6 km/h 5.6 km/h 60 % 0.0 mm
15:46 23.9 °C 15.7 °C 1019.9 hPa South 9.3 km/h 9.3 km/h 60 % 0.0 mm
15:51 24.1 °C 15.6 °C 1019.9 hPa SW 3.2 km/h 3.2 km/h 59 % 0.0 mm
15:56 24.2 °C 15.7 °C 1019.9 hPa SSW 2.6 km/h 2.6 km/h 59 % 0.0 mm
16:01 24.2 °C 14.9 °C 1019.9 hPa WSW 3.7 km/h 3.7 km/h 56 % 0.0 mm
16:06 24.3 °C 14.7 °C 1019.9 hPa WSW 3.7 km/h 3.7 km/h 55 % 0.0 mm
16:11 24.3 °C 14.4 °C 1019.9 hPa WNW 1.9 km/h   54 % 0.0 mm
16:16 24.3 °C 14.1 °C 1019.9 hPa ENE 2.3 km/h 2.3 km/h 53 % 0.0 mm
16:21 24.0 °C 14.1 °C 1019.9 hPa NE 7.4 km/h 7.4 km/h 54 % 0.0 mm
16:26 23.9 °C 14.6 °C 1019.9 hPa NNE 8.7 km/h 8.7 km/h 56 % 0.0 mm
16:31 23.6 °C 13.7 °C 1019.9 hPa NNE 14.8 km/h 14.8 km/h 54 % 0.0 mm
16:36 23.4 °C 13.3 °C 1019.9 hPa North 10.3 km/h 10.3 km/h 53 % 0.0 mm
16:41 23.1 °C 13.3 °C 1019.9 hPa ENE 6.9 km/h 6.9 km/h 54 % 0.0 mm
16:46 22.7 °C 13.2 °C 1019.9 hPa WNW 5.6 km/h 5.6 km/h 55 % 0.0 mm
16:51 22.4 °C 13.4 °C 1019.9 hPa NNW 4.2 km/h 4.2 km/h 57 % 0.0 mm
16:56 22.1 °C 13.4 °C 1019.9 hPa ENE 5.6 km/h 5.6 km/h 58 % 0.0 mm
17:01 21.6 °C 13.8 °C 1019.9 hPa North 3.7 km/h 3.7 km/h 61 % 0.0 mm
17:06 21.2 °C 13.6 °C 1019.9 hPa NNE 3.7 km/h 3.7 km/h 62 % 0.0 mm
17:11 20.9 °C 13.6 °C 1019.9 hPa NE 3.7 km/h 3.7 km/h 63 % 0.0 mm
17:16 20.6 °C 13.8 °C 1019.9 hPa NE 3.7 km/h 3.7 km/h 65 % 0.0 mm
17:21 20.2 °C 13.9 °C 1019.9 hPa ENE 7.4 km/h 7.4 km/h 67 % 0.0 mm
17:26 20.0 °C 13.9 °C 1019.9 hPa North 1.9 km/h 1.9 km/h 68 % 0.0 mm
17:31 19.9 °C 14.3 °C 1019.9 hPa NNW 1.9 km/h   70 % 0.0 mm
17:36 19.5 °C 14.3 °C 1019.9 hPa ENE 3.7 km/h 3.7 km/h 72 % 0.0 mm
17:41 19.2 °C 14.2 °C 1019.9 hPa NNE 3.9 km/h 3.9 km/h 73 % 0.0 mm
17:46 19.2 °C 14.4 °C 1019.9 hPa NNE 3.5 km/h 3.5 km/h 74 % 0.0 mm
17:51 18.9 °C 14.4 °C 1019.9 hPa NE 3.7 km/h   75 % 0.0 mm
17:56 19.1 °C 14.3 °C 1019.9 hPa WSW 3.7 km/h 3.7 km/h 74 % 0.0 mm
18:01 19.0 °C 14.4 °C 1019.9 hPa SW 3.7 km/h 3.7 km/h 75 % 0.0 mm
18:06 19.0 °C 14.7 °C 1019.9 hPa NNW 2.3 km/h   76 % 0.0 mm
18:11 18.8 °C 14.3 °C 1019.9 hPa NE 3.5 km/h 3.5 km/h 75 % 0.0 mm
18:16 18.8 °C 14.7 °C 1019.9 hPa NE 5.6 km/h 5.6 km/h 77 % 0.0 mm
18:21 18.7 °C 14.4 °C 1019.9 hPa NNE 3.7 km/h 3.7 km/h 76 % 0.0 mm
18:26 18.8 °C 14.5 °C 1019.9 hPa Calm     76 % 0.0 mm
18:31 18.7 °C 14.4 °C 1019.9 hPa ENE 3.7 km/h   76 % 0.0 mm
18:36 18.8 °C 14.7 °C 1019.9 hPa Calm     77 % 0.0 mm
18:41 18.8 °C 14.7 °C 1019.9 hPa Calm     77 % 0.0 mm
18:46 18.8 °C 14.7 °C 1019.9 hPa NNE 3.2 km/h 3.2 km/h 77 % 0.0 mm
18:51 18.8 °C 14.9 °C 1019.9 hPa NNE 3.7 km/h 3.7 km/h 78 % 0.0 mm
18:56 18.7 °C 14.6 °C 1019.9 hPa NE 3.9 km/h   77 % 0.0 mm
19:01 18.6 °C 14.5 °C 1019.9 hPa NE 3.7 km/h 3.7 km/h 77 % 0.0 mm
19:06 18.6 °C 14.5 °C 1019.9 hPa NNE 3.7 km/h 3.7 km/h 77 % 0.0 mm
19:11 18.6 °C 14.5 °C 1019.9 hPa NE 3.7 km/h 3.7 km/h 77 % 0.0 mm
19:16 18.5 °C 14.2 °C 1019.9 hPa NNE 5.6 km/h 5.6 km/h 76 % 0.0 mm
19:21 18.4 °C 14.1 °C 1019.9 hPa WNW 3.7 km/h 4.7 km/h 76 % 0.0 mm
19:26 18.4 °C 14.1 °C 1019.9 hPa ENE 3.7 km/h 3.7 km/h 76 % 0.0 mm
19:31 18.3 °C 14.0 °C 1019.9 hPa NW 3.7 km/h 3.7 km/h 76 % 0.0 mm
19:36 18.3 °C 13.8 °C 1019.9 hPa WNW 1.9 km/h   75 % 0.0 mm
19:41 18.4 °C 14.1 °C 1019.9 hPa WSW 1.9 km/h 1.9 km/h 76 % 0.0 mm
19:46 18.2 °C 13.9 °C 1019.9 hPa WSW 1.9 km/h   76 % 0.0 mm
19:51 18.2 °C 13.9 °C 1019.9 hPa Calm     76 % 0.0 mm
19:53 18.1 °C 13.8 °C 1019.9 hPa Calm     76 % 0.0 mm
19:58 18.0 °C 13.7 °C 1019.9 hPa Calm     76 % 0.0 mm
20:03 18.0 °C 13.7 °C 1019.9 hPa West 3.7 km/h   76 % 0.0 mm
20:08 18.0 °C 13.9 °C 1019.9 hPa West 1.9 km/h 1.9 km/h 77 % 0.0 mm
20:13 17.9 °C 13.8 °C 1019.9 hPa Calm     77 % 0.0 mm
20:18 17.8 °C 13.7 °C 1019.9 hPa Calm     77 % 0.0 mm
20:23 17.8 °C 13.9 °C 1019.9 hPa NE 1.9 km/h 1.9 km/h 78 % 0.0 mm
20:28 17.7 °C 13.8 °C 1019.9 hPa Calm     78 % 0.0 mm
20:33 17.7 °C 13.8 °C 1019.9 hPa WNW 1.9 km/h 1.9 km/h 78 % 0.0 mm
20:38 17.8 °C 13.9 °C 1019.9 hPa WNW 3.7 km/h 3.7 km/h 78 % 0.0 mm
20:48 17.7 °C 14.0 °C 1020.9 hPa West 5.6 km/h 5.6 km/h 79 % 0.0 mm
20:53 17.7 °C 14.0 °C 1020.9 hPa WSW 3.7 km/h 3.7 km/h 79 % 0.0 mm
20:58 17.7 °C 14.2 °C 1020.9 hPa WSW 3.7 km/h 3.7 km/h 80 % 0.0 mm
21:03 17.6 °C 14.1 °C 1020.9 hPa Calm     80 % 0.0 mm
21:08 17.6 °C 14.3 °C 1020.9 hPa ESE 3.7 km/h 3.7 km/h 81 % 0.0 mm
21:13 17.5 °C 14.4 °C 1020.9 hPa East 3.7 km/h 3.7 km/h 82 % 0.0 mm
21:18 17.3 °C 14.2 °C 1020.9 hPa ENE 1.9 km/h   82 % 0.0 mm
21:23 17.3 °C 14.2 °C 1020.9 hPa East 1.9 km/h   82 % 0.0 mm
21:28 17.2 °C 14.1 °C 1020.9 hPa Calm     82 % 0.0 mm
21:33 17.2 °C 14.1 °C 1021.9 hPa Calm     82 % 0.0 mm
21:38 17.2 °C 14.1 °C 1021.9 hPa Calm     82 % 0.0 mm
21:43 17.2 °C 14.1 °C 1021.9 hPa Calm     82 % 0.0 mm
21:48 17.2 °C 14.3 °C 1021.9 hPa Calm     83 % 0.0 mm
21:53 17.1 °C 14.2 °C 1021.9 hPa Calm     83 % 0.0 mm
21:58 17.1 °C 14.2 °C 1021.9 hPa Calm     83 % 0.0 mm
22:03 17.1 °C 14.4 °C 1021.9 hPa Calm     84 % 0.0 mm
22:08 17.1 °C 14.4 °C 1021.9 hPa NNE 1.9 km/h   84 % 0.0 mm
22:13 17.0 °C 14.3 °C 1021.9 hPa Calm     84 % 0.0 mm
22:18 17.0 °C 14.3 °C 1021.9 hPa Calm     84 % 0.0 mm
22:23 17.0 °C 14.3 °C 1021.9 hPa Calm     84 % 0.0 mm
22:28 17.0 °C 14.3 °C 1021.9 hPa WSW 1.9 km/h   84 % 0.0 mm
22:33 17.0 °C 14.3 °C 1021.9 hPa Calm     84 % 0.0 mm
22:38 16.9 °C 14.3 °C 1021.9 hPa Calm     85 % 0.0 mm
22:43 16.9 °C 14.3 °C 1021.9 hPa Calm     85 % 0.0 mm
22:48 16.8 °C 14.3 °C 1021.9 hPa Calm     85 % 0.0 mm
22:53 16.9 °C 14.3 °C 1021.9 hPa Calm     85 % 0.0 mm
22:58 16.9 °C 14.3 °C 1021.9 hPa Calm     85 % 0.0 mm
23:03 17.0 °C 14.4 °C 1021.9 hPa ENE 3.7 km/h 3.7 km/h 85 % 0.0 mm
23:08 16.9 °C 14.3 °C 1021.9 hPa ENE 1.9 km/h 1.9 km/h 85 % 0.0 mm
23:13 16.9 °C 14.2 °C 1021.9 hPa ENE 3.7 km/h 3.7 km/h 84 % 0.0 mm
23:18 16.9 °C 14.2 °C 1021.9 hPa Calm     84 % 0.0 mm
23:23 17.0 °C 14.3 °C 1021.9 hPa NNW 1.9 km/h 1.9 km/h 84 % 0.0 mm
23:28 17.0 °C 14.1 °C 1021.9 hPa ENE 3.7 km/h 3.7 km/h 83 % 0.0 mm
23:33 17.0 °C 13.9 °C 1021.9 hPa ENE 1.9 km/h   82 % 0.0 mm
23:38 17.0 °C 13.9 °C 1021.9 hPa NE 3.7 km/h 3.7 km/h 82 % 0.0 mm
23:43 17.0 °C 13.7 °C 1021.9 hPa NNE 3.7 km/h 3.7 km/h 81 % 0.0 mm
23:48 17.0 °C 13.7 °C 1021.9 hPa ENE 3.7 km/h 3.7 km/h 81 % 0.0 mm
23:53 17.0 °C 13.5 °C 1021.9 hPa NNW 3.5 km/h 3.5 km/h 80 % 0.0 mm
23:58 16.9 °C 13.6 °C 1021.9 hPa Calm     81 % 0.0 mm
Meteo Sesrovires
Elogis d' Weather Underground - 3.5 mb

Guio original per  Jim McMurry - jmcmurry@mwt.net Adaptat per a la plantilla per  Wim van der Kuil - Leuven-Template.eu

Trobareu la nostra informacio del temps tambe a:

Weather Underground

AWEKAS